Time;durP1;ratioP1;P1;durP2;ratioP2;P2;SDS_P1;SDS_P2;PMS_P1;PMS_P2;Temp;Humidity;BMP_temperature;BMP_pressure;BME280_temperature;BME280_humidity;BME280_pressure;Samples;Min_cycle;Max_cycle;Signal;HPM_P1;HPM_P2
2024/04/15 00:01:19;;;;;;;7.97;7.17;;;19.60;84.30;;;;;;5244809;27;20757;-60
2024/04/15 00:03:47;;;;;;;7.80;6.60;;;19.50;84.00;;;;;;5191030;27;20815;-60
2024/04/15 00:06:14;;;;;;;10.83;6.63;;;19.50;84.00;;;;;;5243037;27;20272;-59
2024/04/15 00:08:45;;;;;;;8.60;7.03;;;19.40;83.90;;;;;;5241315;27;20248;-60
2024/04/15 00:11:13;;;;;;;9.73;7.13;;;19.40;83.70;;;;;;5243810;27;20572;-60
2024/04/15 00:13:41;;;;;;;12.60;7.90;;;19.40;83.80;;;;;;5209153;27;20565;-59
2024/04/15 00:16:10;;;;;;;14.70;8.10;;;19.30;83.90;;;;;;5240956;27;20248;-60
2024/04/15 00:18:38;;;;;;;10.97;8.60;;;19.30;84.10;;;;;;5238945;27;20891;-60
2024/04/15 00:21:10;;;;;;;9.57;7.80;;;19.20;84.20;;;;;;5243428;27;20316;-59
2024/04/15 00:23:38;;;;;;;10.13;7.93;;;19.10;84.60;;;;;;5195603;27;20635;-60
2024/04/15 00:26:05;;;;;;;9.27;7.33;;;19.10;85.10;;;;;;5245730;27;20279;-59
2024/04/15 00:28:33;;;;;;;12.13;7.23;;;19.00;85.20;;;;;;5246767;27;20302;-60
2024/04/15 00:31:01;;;;;;;8.37;6.80;;;19.00;85.00;;;;;;5216314;27;20256;-60
2024/04/15 00:33:29;;;;;;;7.97;6.53;;;19.00;84.80;;;;;;5240179;27;20256;-60
2024/04/15 00:35:56;;;;;;;9.90;6.20;;;19.00;84.20;;;;;;5245877;27;20264;-59
2024/04/15 00:38:24;;;;;;;7.70;5.87;;;18.90;83.70;;;;;;5244711;27;20248;-59
2024/04/15 00:40:52;;;;;;;8.97;6.00;;;18.90;83.40;;;;;;5246217;27;20240;-59
2024/04/15 00:43:20;;;;;;;8.43;5.40;;;18.90;83.00;;;;;;5246281;27;20240;-59
2024/04/15 00:45:47;;;;;;;12.10;6.50;;;18.80;82.70;;;;;;5247369;27;20565;-59
2024/04/15 00:48:17;;;;;;;10.60;6.40;;;18.90;82.80;;;;;;5245952;27;20292;-59
2024/04/15 00:50:49;;;;;;;11.13;6.83;;;18.90;83.00;;;;;;5247496;27;20342;-59
2024/04/15 00:53:21;;;;;;;9.00;6.43;;;18.90;82.90;;;;;;5219457;27;20268;-60
2024/04/15 00:55:53;;;;;;;7.60;5.83;;;18.90;82.80;;;;;;5247714;27;20260;-61
2024/04/15 00:58:23;;;;;;;7.97;7.07;;;18.80;83.10;;;;;;5245987;27;20351;-60
2024/04/15 01:00:53;;;;;;;7.33;6.10;;;18.80;83.40;;;;;;5244220;27;20302;-59
2024/04/15 01:03:22;;;;;;;8.23;5.80;;;18.80;83.80;;;;;;5242381;27;20355;-59
2024/04/15 01:05:50;;;;;;;11.70;6.57;;;18.70;84.30;;;;;;5217404;27;20255;-60
2024/04/15 01:08:17;;;;;;;10.23;6.37;;;18.70;84.50;;;;;;5245651;27;20251;-60
2024/04/15 01:10:45;;;;;;;10.77;5.60;;;18.60;84.50;;;;;;5238972;27;20757;-60
2024/04/15 01:13:26;;;;;;;10.40;6.60;;;18.50;84.80;;;;;;5244422;27;20247;-59
2024/04/15 01:16:00;;;;;;;6.53;5.93;;;18.50;85.30;;;;;;5245603;27;20260;-60
2024/04/15 01:18:28;;;;;;;10.23;6.23;;;18.40;85.80;;;;;;5244295;27;20643;-59
2024/04/15 01:20:58;;;;;;;7.20;6.00;;;18.40;86.10;;;;;;5222647;27;20358;-60
2024/04/15 01:23:37;;;;;;;11.70;5.57;;;18.30;86.40;;;;;;5244361;27;20241;-59
2024/04/15 01:26:05;;;;;;;9.00;6.07;;;18.30;86.70;;;;;;5234797;27;20244;-59
2024/04/15 01:28:33;;;;;;;10.80;6.77;;;18.20;86.70;;;;;;5239779;27;20355;-60
2024/04/15 01:31:00;;;;;;;11.20;7.20;;;18.20;86.80;;;;;;5243775;27;20248;-60
2024/04/15 01:33:28;;;;;;;13.17;6.60;;;18.20;86.80;;;;;;5245836;27;20293;-59
2024/04/15 01:35:55;;;;;;;9.97;6.87;;;18.20;86.60;;;;;;5213971;27;20259;-60
2024/04/15 01:38:22;;;;;;;11.30;7.23;;;18.20;86.60;;;;;;5245835;27;20620;-60
2024/04/15 01:40:49;;;;;;;11.47;6.97;;;18.10;86.90;;;;;;5243834;27;20244;-59
2024/04/15 01:43:17;;;;;;;11.03;7.37;;;18.00;87.00;;;;;;5242494;27;20811;-59
2024/04/15 01:45:45;;;;;;;9.87;6.80;;;18.00;87.10;;;;;;5244377;27;20247;-59
2024/04/15 01:48:13;;;;;;;12.87;7.03;;;18.00;87.10;;;;;;5223040;27;20304;-60
2024/04/15 01:50:40;;;;;;;12.27;7.47;;;18.00;87.00;;;;;;5242895;27;20259;-59
2024/04/15 01:53:11;;;;;;;13.13;6.73;;;17.90;86.80;;;;;;5246441;27;20259;-60
2024/04/15 01:55:39;;;;;;;10.57;6.73;;;17.90;87.00;;;;;;5247195;27;20258;-59
2024/04/15 01:58:07;;;;;;;9.80;6.13;;;17.80;87.20;;;;;;5222938;27;20287;-60
2024/04/15 02:00:35;;;;;;;7.53;6.03;;;17.70;87.20;;;;;;5247413;27;20613;-60
2024/04/15 02:03:03;;;;;;;8.90;6.17;;;17.70;87.40;;;;;;5244797;27;20300;-60
2024/04/15 02:05:30;;;;;;;8.10;6.97;;;17.70;87.50;;;;;;5247101;27;20339;-60
2024/04/15 02:07:58;;;;;;;10.10;6.30;;;17.60;87.70;;;;;;5244421;27;20350;-60
2024/04/15 02:10:25;;;;;;;8.03;5.83;;;17.60;87.90;;;;;;5243048;27;20247;-59
2024/04/15 02:12:53;;;;;;;11.53;6.40;;;17.50;87.90;;;;;;5217383;27;20741;-60
2024/04/15 02:15:20;;;;;;;9.53;7.13;;;17.40;88.00;;;;;;5238285;27;20272;-60
2024/04/15 02:17:47;;;;;;;9.60;6.23;;;17.30;88.50;;;;;;5244162;27;20251;-59
2024/04/15 02:20:15;;;;;;;7.60;6.70;;;17.30;88.90;;;;;;5237248;27;20284;-59
2024/04/15 02:22:42;;;;;;;10.57;7.43;;;17.20;89.30;;;;;;5238485;27;20264;-60
2024/04/15 02:25:10;;;;;;;7.10;6.40;;;17.20;89.70;;;;;;5241188;27;20244;-60
2024/04/15 02:27:37;;;;;;;9.97;7.53;;;17.20;90.00;;;;;;5238725;27;20254;-59
2024/04/15 02:30:07;;;;;;;7.60;6.50;;;17.20;90.20;;;;;;5244390;27;20302;-59
2024/04/15 02:32:35;;;;;;;9.57;7.00;;;17.20;90.30;;;;;;5239300;27;20294;-60
2024/04/15 02:35:03;;;;;;;9.90;6.90;;;17.20;90.50;;;;;;5196332;27;20358;-60
2024/04/15 02:37:32;;;;;;;8.47;6.40;;;17.20;90.70;;;;;;5212810;27;20248;-59
2024/04/15 02:39:59;;;;;;;8.87;6.80;;;17.10;90.70;;;;;;5245815;27;20252;-60
2024/04/15 02:42:27;;;;;;;8.17;6.67;;;17.10;90.80;;;;;;5192768;27;20281;-59
2024/04/15 02:44:55;;;;;;;8.27;6.57;;;17.10;90.80;;;;;;5241884;27;20610;-59
2024/04/15 02:47:23;;;;;;;10.83;8.17;;;17.10;90.80;;;;;;5216515;27;20248;-59
2024/04/15 02:49:50;;;;;;;11.13;8.97;;;17.10;90.60;;;;;;5240551;27;20248;-59
2024/04/15 02:52:18;;;;;;;10.83;7.67;;;17.10;90.70;;;;;;5243468;27;20245;-59
2024/04/15 02:54:45;;;;;;;12.97;8.53;;;17.10;90.70;;;;;;5243124;27;20244;-60
2024/04/15 02:57:12;;;;;;;12.67;8.30;;;17.00;90.80;;;;;;5239136;27;20304;-59
2024/04/15 02:59:40;;;;;;;11.20;9.20;;;17.00;90.80;;;;;;5217542;27;20255;-59
2024/04/15 03:02:08;;;;;;;10.97;8.47;;;17.00;90.80;;;;;;5204988;27;20253;-59
2024/04/15 03:04:35;;;;;;;8.07;6.63;;;17.00;90.80;;;;;;5243016;27;20318;-59
2024/04/15 03:07:03;;;;;;;8.87;7.10;;;17.00;90.80;;;;;;5241857;27;20260;-59
2024/04/15 03:09:30;;;;;;;11.53;6.93;;;16.90;90.60;;;;;;5243845;27;20858;-59
2024/04/15 03:11:58;;;;;;;8.30;7.50;;;16.90;90.70;;;;;;5190135;27;20300;-59
2024/04/15 03:14:26;;;;;;;12.30;7.13;;;16.80;90.90;;;;;;5240733;27;20325;-60
2024/04/15 03:16:53;;;;;;;11.40;8.00;;;16.80;91.00;;;;;;5243151;27;20254;-59
2024/04/15 03:19:21;;;;;;;14.30;7.93;;;16.80;91.10;;;;;;5219612;27;20260;-60
2024/04/15 03:21:49;;;;;;;10.30;7.57;;;16.70;91.10;;;;;;5243983;27;20247;-59
2024/04/15 03:24:18;;;;;;;11.23;8.20;;;16.70;91.10;;;;;;5215306;27;20258;-60
2024/04/15 03:26:45;;;;;;;10.83;8.40;;;16.70;91.20;;;;;;5242026;27;20717;-59
2024/04/15 03:29:12;;;;;;;14.37;8.17;;;16.70;91.30;;;;;;5242700;27;20744;-60
2024/04/15 03:31:40;;;;;;;13.63;8.20;;;16.70;91.30;;;;;;5241016;27;20714;-59
2024/04/15 03:34:10;;;;;;;9.03;7.53;;;16.70;91.30;;;;;;5219442;27;20277;-60
2024/04/15 03:36:38;;;;;;;9.87;8.13;;;16.60;91.30;;;;;;5245877;27;20247;-59
2024/04/15 03:39:05;;;;;;;11.93;7.57;;;16.70;91.20;;;;;;5214967;27;20270;-59
2024/04/15 03:41:34;;;;;;;10.30;7.60;;;16.70;91.00;;;;;;5241613;27;20249;-60
2024/04/15 03:44:02;;;;;;;8.43;7.03;;;16.70;91.00;;;;;;5234311;27;20304;-60
2024/04/15 03:46:32;;;;;;;8.97;7.30;;;16.70;90.80;;;;;;5215644;27;20255;-59
2024/04/15 03:49:00;;;;;;;8.17;6.70;;;16.70;90.70;;;;;;5239045;27;20703;-60
2024/04/15 03:51:27;;;;;;;7.10;6.00;;;16.70;90.50;;;;;;5243747;27;20291;-59
2024/04/15 03:53:55;;;;;;;6.80;6.13;;;16.70;90.40;;;;;;5236158;27;20290;-59
2024/04/15 03:56:23;;;;;;;10.87;6.03;;;16.70;90.40;;;;;;5204096;27;20259;-60
2024/04/15 03:58:50;;;;;;;7.70;5.53;;;16.70;90.30;;;;;;5242319;27;20250;-59
2024/04/15 04:01:18;;;;;;;7.17;5.90;;;16.70;90.20;;;;;;5213850;27;20248;-59
2024/04/15 04:03:45;;;;;;;6.10;5.50;;;16.80;90.10;;;;;;5238148;27;21410;-59
2024/04/15 04:06:13;;;;;;;8.10;6.20;;;16.80;89.90;;;;;;5239869;27;20271;-59
2024/04/15 04:08:41;;;;;;;9.33;7.03;;;16.80;89.70;;;;;;5241715;27;20251;-59
2024/04/15 04:11:09;;;;;;;9.30;6.20;;;16.80;89.60;;;;;;5240274;27;20267;-59
2024/04/15 04:13:36;;;;;;;10.57;7.40;;;16.80;89.80;;;;;;5215586;27;20307;-59
2024/04/15 04:16:04;;;;;;;7.27;6.27;;;16.70;90.00;;;;;;5240234;27;20252;-59
2024/04/15 04:18:32;;;;;;;7.03;6.30;;;16.70;90.10;;;;;;5240569;27;20401;-59
2024/04/15 04:21:00;;;;;;;7.23;6.50;;;16.70;90.20;;;;;;5237136;27;20765;-60
2024/04/15 04:23:28;;;;;;;8.90;6.97;;;16.60;90.30;;;;;;5209078;27;20259;-60
2024/04/15 04:25:57;;;;;;;7.47;6.70;;;16.60;90.40;;;;;;5197123;27;20259;-60
2024/04/15 04:28:26;;;;;;;11.47;5.60;;;16.50;90.50;;;;;;5237675;27;20293;-60
2024/04/15 04:30:59;;;;;;;9.03;6.23;;;16.50;90.50;;;;;;5204048;27;20757;-60
2024/04/15 04:33:29;;;;;;;6.20;5.47;;;16.50;90.50;;;;;;5241680;27;20362;-60
2024/04/15 04:35:56;;;;;;;6.77;5.67;;;16.40;90.50;;;;;;5240883;27;20563;-60
2024/04/15 04:38:25;;;;;;;11.23;5.83;;;16.40;90.40;;;;;;5214358;27;20260;-60
2024/04/15 04:40:57;;;;;;;9.87;5.73;;;16.40;90.20;;;;;;5237947;27;20301;-60
2024/04/15 04:43:25;;;;;;;7.63;5.33;;;16.40;90.10;;;;;;5210568;27;20256;-59
2024/04/15 04:45:54;;;;;;;6.47;5.07;;;16.40;89.90;;;;;;5242766;27;20289;-59
2024/04/15 04:48:22;;;;;;;8.07;5.10;;;16.50;89.60;;;;;;5206006;27;20580;-59
2024/04/15 04:50:50;;;;;;;8.03;5.40;;;16.50;89.40;;;;;;5212476;27;20258;-60
2024/04/15 04:53:18;;;;;;;5.67;5.17;;;16.50;89.20;;;;;;5246186;27;20352;-59
2024/04/15 04:55:46;;;;;;;10.47;5.60;;;16.50;89.60;;;;;;5182537;27;20258;-60
2024/04/15 04:58:14;;;;;;;5.87;4.60;;;16.50;88.80;;;;;;5243666;27;20255;-60
2024/04/15 05:00:42;;;;;;;9.37;5.20;;;16.60;88.60;;;;;;5243941;27;20306;-60
2024/04/15 05:03:10;;;;;;;6.63;4.93;;;16.60;88.40;;;;;;5243060;27;20255;-59
2024/04/15 05:05:38;;;;;;;5.47;4.60;;;16.60;88.40;;;;;;5242394;27;20590;-59
2024/04/15 05:08:06;;;;;;;9.97;4.80;;;16.60;88.20;;;;;;5242305;27;20256;-59
2024/04/15 05:10:36;;;;;;;8.23;4.67;;;16.70;87.90;;;;;;5241330;27;20609;-59
2024/04/15 05:13:04;;;;;;;7.23;4.83;;;16.70;87.70;;;;;;5243578;27;20566;-59
2024/04/15 05:15:32;;;;;;;6.53;4.40;;;16.70;87.30;;;;;;5246423;27;20304;-59
2024/04/15 05:17:59;;;;;;;8.17;5.07;;;16.80;87.30;;;;;;5211633;27;20351;-59
2024/04/15 05:20:28;;;;;;;5.37;4.87;;;16.80;87.40;;;;;;5224154;27;20261;-59
2024/04/15 05:22:55;;;;;;;6.20;4.40;;;16.80;87.60;;;;;;5246685;27;20258;-59
2024/04/15 05:25:23;;;;;;;5.90;4.63;;;16.90;87.80;;;;;;5243507;27;20263;-59
2024/04/15 05:27:51;;;;;;;9.47;4.77;;;16.90;87.70;;;;;;5220326;27;20250;-60
2024/04/15 05:30:19;;;;;;;4.57;4.17;;;17.00;87.50;;;;;;5215758;27;20295;-59
2024/04/15 05:32:47;;;;;;;4.40;3.97;;;17.00;87.10;;;;;;5238787;27;20255;-59
2024/04/15 05:35:14;;;;;;;7.03;4.03;;;17.10;86.90;;;;;;5246335;27;20271;-59
2024/04/15 05:37:42;;;;;;;5.07;3.77;;;17.20;86.40;;;;;;5217884;27;20299;-60
2024/04/15 05:40:10;;;;;;;7.30;3.87;;;17.30;85.80;;;;;;5195759;27;20242;-60
2024/04/15 05:42:37;;;;;;;13.20;4.30;;;17.40;85.80;;;;;;5246419;27;20256;-60
2024/04/15 05:45:05;;;;;;;12.70;4.50;;;17.50;85.90;;;;;;5246412;27;20247;-59
2024/04/15 05:47:32;;;;;;;8.37;4.13;;;17.60;86.40;;;;;;5245656;27;20301;-59
2024/04/15 05:50:00;;;;;;;6.67;3.93;;;17.80;86.60;;;;;;5216305;27;20297;-59
2024/04/15 05:52:27;;;;;;;5.33;4.27;;;17.90;86.10;;;;;;5239752;27;20307;-59
2024/04/15 05:54:55;;;;;;;5.07;3.87;;;18.00;85.90;;;;;;5220027;27;20249;-60
2024/04/15 05:57:23;;;;;;;6.17;4.63;;;18.20;86.10;;;;;;5199741;27;20372;-59
2024/04/15 05:59:50;;;;;;;7.33;4.63;;;18.30;86.20;;;;;;5243994;27;20245;-60
2024/04/15 06:02:22;;;;;;;11.67;4.77;;;18.50;86.50;;;;;;5243873;27;20251;-59
2024/04/15 06:04:50;;;;;;;8.80;5.07;;;18.60;86.30;;;;;;5245041;27;20252;-59
2024/04/15 06:07:18;;;;;;;5.07;4.07;;;18.80;86.30;;;;;;5244157;27;20252;-59
2024/04/15 06:09:45;;;;;;;10.27;4.57;;;18.90;86.20;;;;;;5246590;27;20686;-59
2024/04/15 06:12:13;;;;;;;6.23;3.90;;;19.10;85.80;;;;;;5239520;27;20349;-59
2024/04/15 06:14:41;;;;;;;7.20;3.63;;;19.30;85.00;;;;;;5217059;27;20259;-59
2024/04/15 06:17:09;;;;;;;6.13;3.90;;;19.50;83.90;;;;;;5212520;27;20266;-60
2024/04/15 06:19:37;;;;;;;6.67;3.83;;;19.70;83.10;;;;;;5225067;27;20291;-59
2024/04/15 06:22:04;;;;;;;10.77;4.00;;;19.90;82.40;;;;;;5208839;27;20261;-60
2024/04/15 06:24:32;;;;;;;4.80;3.20;;;20.10;81.50;;;;;;5245663;27;20245;-62
2024/04/15 06:26:59;;;;;;;9.50;3.83;;;20.20;80.40;;;;;;5245319;27;20257;-59
2024/04/15 06:29:27;;;;;;;3.73;3.10;;;20.40;79.60;;;;;;5213284;27;20287;-58
2024/04/15 06:31:54;;;;;;;7.50;3.70;;;20.60;79.10;;;;;;5216373;27;20291;-58
2024/04/15 06:34:24;;;;;;;11.73;3.90;;;20.70;78.10;;;;;;5245244;27;20252;-58
2024/04/15 06:36:52;;;;;;;7.03;3.60;;;20.90;77.80;;;;;;5245669;27;20268;-59
2024/04/15 06:39:20;;;;;;;6.20;3.03;;;21.00;77.00;;;;;;5216090;27;20252;-58
2024/04/15 06:41:48;;;;;;;4.20;3.07;;;21.20;76.30;;;;;;5213536;27;20261;-59
2024/04/15 06:44:16;;;;;;;7.33;3.83;;;21.30;76.10;;;;;;5184360;27;20292;-59
2024/04/15 06:46:43;;;;;;;6.60;4.13;;;21.50;75.60;;;;;;5189075;27;20256;-58
2024/04/15 06:49:11;;;;;;;5.83;3.30;;;21.60;76.50;;;;;;5241303;27;20331;-59
2024/04/15 06:51:39;;;;;;;12.40;3.60;;;21.70;75.90;;;;;;5245563;27;20888;-59
2024/04/15 06:54:07;;;;;;;6.17;3.77;;;21.80;75.60;;;;;;5217343;27;20280;-58
2024/04/15 06:56:36;;;;;;;8.07;3.60;;;22.00;76.10;;;;;;5220588;27;20248;-60
2024/04/15 06:59:03;;;;;;;7.33;3.00;;;22.10;75.90;;;;;;5246515;27;20718;-59
2024/04/15 07:01:33;;;;;;;14.07;3.53;;;22.30;73.70;;;;;;5240006;27;20261;-59
2024/04/15 07:04:06;;;;;;;9.43;3.27;;;22.40;73.40;;;;;;5210583;27;20347;-59
2024/04/15 07:06:34;;;;;;;5.33;3.10;;;22.60;72.60;;;;;;5245102;27;20256;-59
2024/04/15 07:09:01;;;;;;;4.93;2.97;;;22.70;72.00;;;;;;5243146;27;20249;-59
2024/04/15 07:11:28;;;;;;;5.33;3.00;;;22.90;70.80;;;;;;5213552;27;20544;-59
2024/04/15 07:13:56;;;;;;;5.50;2.73;;;23.10;70.00;;;;;;5221172;27;20248;-58
2024/04/15 07:16:23;;;;;;;7.23;3.40;;;23.20;69.60;;;;;;5216700;27;20755;-59
2024/04/15 07:18:51;;;;;;;8.50;2.90;;;23.40;69.80;;;;;;5244816;27;20279;-58
2024/04/15 07:21:21;;;;;;;4.67;3.40;;;23.60;70.00;;;;;;5215675;27;20256;-59
2024/04/15 07:23:49;;;;;;;3.20;2.90;;;23.70;69.90;;;;;;5235253;27;20261;-59
2024/04/15 07:26:17;;;;;;;6.57;2.87;;;23.90;69.60;;;;;;5241332;27;20642;-59
2024/04/15 07:28:45;;;;;;;5.00;2.60;;;24.10;68.90;;;;;;5207640;27;20642;-59
2024/04/15 07:31:12;;;;;;;6.57;3.10;;;24.20;68.20;;;;;;5215880;27;20331;-59
2024/04/15 07:33:39;;;;;;;5.57;2.83;;;24.30;67.70;;;;;;5241995;27;20295;-59
2024/04/15 07:36:07;;;;;;;5.40;2.93;;;24.50;67.40;;;;;;5245010;27;20315;-58
2024/04/15 07:38:34;;;;;;;11.07;3.40;;;24.60;67.30;;;;;;5188441;27;20253;-58
2024/04/15 07:41:02;;;;;;;8.93;3.00;;;24.70;66.50;;;;;;5194298;27;20255;-58
2024/04/15 07:43:29;;;;;;;10.07;3.00;;;24.80;66.60;;;;;;5242865;27;20747;-59
2024/04/15 07:45:56;;;;;;;5.80;3.03;;;25.00;66.70;;;;;;5237726;27;20248;-58
2024/04/15 07:48:24;;;;;;;7.80;3.23;;;25.10;66.20;;;;;;5218450;27;20248;-58
2024/04/15 07:50:53;;;;;;;8.33;3.07;;;25.20;65.70;;;;;;5217095;27;20252;-59
2024/04/15 07:53:21;;;;;;;5.10;2.63;;;25.30;65.20;;;;;;5212770;27;20958;-59
2024/04/15 07:55:48;;;;;;;6.30;2.67;;;25.40;65.20;;;;;;5212703;27;20249;-58
2024/04/15 07:58:16;;;;;;;6.17;2.90;;;25.50;65.30;;;;;;5244388;27;20290;-59
2024/04/15 08:00:44;;;;;;;4.63;3.20;;;25.70;65.20;;;;;;5204097;27;20261;-59
2024/04/15 08:03:12;;;;;;;5.93;3.10;;;25.80;63.40;;;;;;5212115;27;20246;-59
2024/04/15 08:05:40;;;;;;;6.37;3.03;;;25.90;62.30;;;;;;5216687;27;20264;-58
2024/04/15 08:08:07;;;;;;;4.40;2.63;;;26.00;61.80;;;;;;5212779;27;20345;-58
2024/04/15 08:10:35;;;;;;;8.70;2.83;;;26.20;61.90;;;;;;5243527;27;20308;-59
2024/04/15 08:13:02;;;;;;;5.77;2.80;;;26.40;62.00;;;;;;5240842;27;20291;-58
2024/04/15 08:15:33;;;;;;;6.30;2.97;;;26.50;61.90;;;;;;5244143;27;20363;-58
2024/04/15 08:18:00;;;;;;;5.40;2.67;;;26.70;62.40;;;;;;5239002;27;20256;-58
2024/04/15 08:20:29;;;;;;;3.17;2.50;;;26.80;60.50;;;;;;5241058;27;20340;-59
2024/04/15 08:22:56;;;;;;;4.13;2.43;;;26.90;60.20;;;;;;5243577;27;20713;-58
2024/04/15 08:25:23;;;;;;;7.00;2.60;;;27.00;57.90;;;;;;5221009;27;20786;-59
2024/04/15 08:27:51;;;;;;;6.87;2.67;;;27.10;57.00;;;;;;5240717;27;20704;-59
2024/04/15 08:30:22;;;;;;;5.13;2.60;;;27.20;57.40;;;;;;5240817;27;20252;-59
2024/04/15 08:32:51;;;;;;;3.40;2.70;;;27.30;56.90;;;;;;5244057;27;20252;-58
2024/04/15 08:35:19;;;;;;;14.97;2.73;;;27.40;56.10;;;;;;5218829;27;20260;-59
2024/04/15 08:37:46;;;;;;;10.20;2.63;;;27.60;57.00;;;;;;5204208;27;20704;-59
2024/04/15 08:40:13;;;;;;;4.77;2.53;;;27.70;57.30;;;;;;5242217;27;20300;-58
2024/04/15 08:42:47;;;;;;;9.77;3.67;;;27.80;57.30;;;;;;5212599;27;20300;-59
2024/04/15 08:45:20;;;;;;;3.80;2.83;;;28.00;57.50;;;;;;5212472;27;20389;-58
2024/04/15 08:47:50;;;;;;;5.63;3.00;;;28.10;57.40;;;;;;5245726;27;20906;-59
2024/04/15 08:50:22;;;;;;;5.43;2.60;;;28.20;56.40;;;;;;5235622;27;20300;-59
2024/04/15 08:52:51;;;;;;;3.80;2.63;;;28.30;55.40;;;;;;5216519;27;20352;-59
2024/04/15 08:55:19;;;;;;;7.37;2.80;;;28.50;55.70;;;;;;5244032;27;20562;-58
2024/04/15 08:57:47;;;;;;;4.83;2.47;;;28.60;54.80;;;;;;5242778;27;20613;-59
2024/04/15 09:00:18;;;;;;;8.00;2.63;;;28.70;52.90;;;;;;5244260;27;20256;-59
2024/04/15 09:02:46;;;;;;;3.77;2.60;;;28.70;52.80;;;;;;5243635;27;20639;-59
2024/04/15 09:05:14;;;;;;;3.57;2.30;;;28.80;54.00;;;;;;5240841;27;20329;-59
2024/04/15 09:07:41;;;;;;;9.10;3.13;;;28.90;53.80;;;;;;5215491;27;20272;-59
2024/04/15 09:10:11;;;;;;;13.17;2.87;;;29.00;53.40;;;;;;5246006;27;20433;-58
2024/04/15 09:12:42;;;;;;;8.87;2.87;;;29.10;52.80;;;;;;5243363;27;20244;-58
2024/04/15 09:15:11;;;;;;;8.10;2.90;;;29.20;52.40;;;;;;5242678;27;20257;-58
2024/04/15 09:17:39;;;;;;;5.70;2.50;;;29.30;51.70;;;;;;5218879;27;20347;-59
2024/04/15 09:20:10;;;;;;;6.90;2.83;;;29.40;50.10;;;;;;5206792;27;20249;-58
2024/04/15 09:22:38;;;;;;;11.97;3.13;;;29.50;49.10;;;;;;5246554;27;20282;-59
2024/04/15 09:25:06;;;;;;;5.80;2.50;;;29.50;49.20;;;;;;5217405;27;20294;-59
2024/04/15 09:27:34;;;;;;;6.17;2.70;;;29.50;47.80;;;;;;5239963;27;20244;-59
2024/04/15 09:30:03;;;;;;;5.83;2.50;;;29.50;47.80;;;;;;5196191;27;20264;-59
2024/04/15 09:32:33;;;;;;;5.20;2.43;;;29.50;46.40;;;;;;5245577;27;20259;-59
2024/04/15 09:35:03;;;;;;;7.70;3.10;;;29.50;47.20;;;;;;5240598;27;20245;-58
2024/04/15 09:37:37;;;;;;;8.97;2.50;;;29.60;48.30;;;;;;5244376;27;20607;-59
2024/04/15 09:40:08;;;;;;;3.37;2.60;;;29.70;47.70;;;;;;5242878;27;20241;-58
2024/04/15 09:42:37;;;;;;;4.30;2.53;;;29.60;46.40;;;;;;5204719;27;20317;-58
2024/04/15 09:45:09;;;;;;;7.20;2.63;;;29.60;46.50;;;;;;5244196;27;20316;-58
2024/04/15 09:47:41;;;;;;;6.80;2.70;;;29.60;46.80;;;;;;5217216;27;20256;-58
2024/04/15 09:50:09;;;;;;;5.37;3.13;;;29.60;44.80;;;;;;5245732;27;20257;-59
2024/04/15 09:52:40;;;;;;;5.53;2.50;;;29.60;45.20;;;;;;5216860;27;20556;-59
2024/04/15 09:55:09;;;;;;;2.90;2.00;;;29.60;45.20;;;;;;5217366;27;20666;-59
2024/04/15 09:57:43;;;;;;;6.80;2.67;;;29.60;45.20;;;;;;5246041;27;20262;-58
2024/04/15 10:00:15;;;;;;;5.47;2.40;;;29.80;46.60;;;;;;5241832;27;20248;-58
2024/04/15 10:02:57;;;;;;;3.43;2.47;;;29.90;45.20;;;;;;5246498;27;20294;-59
2024/04/15 10:05:27;;;;;;;4.53;2.60;;;30.00;44.30;;;;;;5216446;27;20240;-58
2024/04/15 10:07:59;;;;;;;8.00;2.67;;;30.10;45.00;;;;;;5246299;27;20698;-59
2024/04/15 10:10:28;;;;;;;6.23;2.20;;;30.20;44.80;;;;;;5225177;27;20613;-59
2024/04/15 10:13:03;;;;;;;6.43;2.63;;;30.30;44.90;;;;;;5245379;27;20292;-59
2024/04/15 10:15:32;;;;;;;5.13;2.87;;;30.40;44.80;;;;;;5243505;27;20302;-59
2024/04/15 10:18:04;;;;;;;4.60;2.80;;;30.40;44.70;;;;;;5245289;27;20386;-59
2024/04/15 10:20:36;;;;;;;5.33;2.97;;;30.40;44.40;;;;;;5243251;27;20260;-59
2024/04/15 10:23:06;;;;;;;7.80;2.60;;;30.40;44.50;;;;;;5242819;27;20240;-59
2024/04/15 10:25:35;;;;;;;8.27;3.13;;;30.40;44.80;;;;;;5214555;27;20726;-59
2024/04/15 10:28:07;;;;;;;8.53;2.77;;;30.50;44.80;;;;;;5215272;27;20629;-59
2024/04/15 10:30:37;;;;;;;4.43;2.60;;;30.40;46.10;;;;;;5210863;27;20291;-59
2024/04/15 10:33:06;;;;;;;9.63;2.93;;;30.30;46.10;;;;;;5242282;27;20264;-59
2024/04/15 10:35:36;;;;;;;6.70;2.57;;;30.20;45.10;;;;;;5245750;27;20290;-59
2024/04/15 10:38:05;;;;;;;8.83;2.70;;;30.20;45.60;;;;;;5202464;27;20262;-58
2024/04/15 10:40:38;;;;;;;4.20;2.37;;;30.00;44.20;;;;;;5242768;27;20291;-59
2024/04/15 10:43:07;;;;;;;4.63;2.70;;;29.90;44.20;;;;;;5246625;27;20244;-59
2024/04/15 10:45:37;;;;;;;6.90;2.30;;;29.80;44.90;;;;;;5245862;27;20924;-59
2024/04/15 10:48:05;;;;;;;7.73;3.00;;;29.70;44.50;;;;;;5216768;27;20304;-59
2024/04/15 10:50:33;;;;;;;7.10;2.60;;;29.70;44.10;;;;;;5189272;27;20320;-59
2024/04/15 10:53:01;;;;;;;4.70;2.50;;;29.60;45.70;;;;;;5245370;27;20290;-59
2024/04/15 10:55:31;;;;;;;8.33;2.53;;;29.60;44.40;;;;;;5212164;27;20353;-59
2024/04/15 10:57:59;;;;;;;7.57;2.87;;;29.70;43.50;;;;;;5242818;27;20353;-59
2024/04/15 11:00:27;;;;;;;6.77;2.77;;;29.70;43.60;;;;;;5186669;27;20261;-59
2024/04/15 11:02:55;;;;;;;5.90;2.07;;;29.70;44.30;;;;;;5244225;27;20256;-58
2024/04/15 11:05:23;;;;;;;6.37;2.30;;;29.70;43.70;;;;;;5186653;27;20261;-58
2024/04/15 11:07:53;;;;;;;5.90;2.63;;;29.60;43.80;;;;;;5245516;27;20250;-59
2024/04/15 11:10:21;;;;;;;7.60;2.63;;;29.50;43.80;;;;;;5205426;27;20245;-59
2024/04/15 11:12:52;;;;;;;5.73;2.43;;;29.50;43.90;;;;;;5245390;27;20291;-59
2024/04/15 11:15:21;;;;;;;4.57;2.50;;;29.50;43.90;;;;;;5240422;27;20260;-59
2024/04/15 11:17:50;;;;;;;5.40;2.63;;;29.30;43.50;;;;;;5241499;27;20786;-59
2024/04/15 11:20:18;;;;;;;6.03;2.07;;;29.20;43.80;;;;;;5214118;27;20252;-59
2024/04/15 11:22:47;;;;;;;7.20;2.10;;;29.10;44.30;;;;;;5244786;27;20252;-58
2024/04/15 11:25:15;;;;;;;7.50;2.53;;;28.90;45.00;;;;;;5242243;27;20574;-59
2024/04/15 11:27:57;;;;;;;7.00;2.83;;;28.80;45.00;;;;;;5242293;27;20304;-59
2024/04/15 11:30:27;;;;;;;5.37;2.63;;;28.80;45.80;;;;;;5208346;27;20252;-59
2024/04/15 11:32:59;;;;;;;9.37;3.07;;;28.80;46.20;;;;;;5239967;27;20256;-59
2024/04/15 11:35:27;;;;;;;11.20;3.00;;;28.90;46.80;;;;;;5237625;27;20246;-59
2024/04/15 11:38:03;;;;;;;6.37;2.70;;;29.00;45.70;;;;;;5245861;27;20249;-59
2024/04/15 11:40:31;;;;;;;5.40;2.40;;;29.10;45.50;;;;;;5239906;27;20344;-58
2024/04/15 11:43:00;;;;;;;5.27;2.70;;;29.20;44.90;;;;;;5186003;27;20246;-59
2024/04/15 11:45:27;;;;;;;8.60;2.77;;;29.30;44.60;;;;;;5243146;27;20252;-63
2024/04/15 11:47:55;;;;;;;12.27;2.67;;;29.40;43.50;;;;;;5242602;27;20299;-59
2024/04/15 11:50:24;;;;;;;5.87;2.40;;;29.60;44.10;;;;;;5219845;27;20302;-59
2024/04/15 11:52:57;;;;;;;9.30;2.47;;;29.80;44.80;;;;;;5244740;27;20248;-59
2024/04/15 11:55:25;;;;;;;5.57;2.37;;;29.90;45.80;;;;;;5218883;27;20310;-59
2024/04/15 11:57:53;;;;;;;4.33;2.07;;;29.90;43.70;;;;;;5212444;27;20287;-59
2024/04/15 12:00:21;;;;;;;10.30;2.60;;;29.90;42.30;;;;;;5213113;27;20304;-59
2024/04/15 12:02:49;;;;;;;10.17;2.87;;;30.00;42.10;;;;;;5192063;27;20252;-59
2024/04/15 12:05:17;;;;;;;5.77;2.60;;;30.00;45.20;;;;;;5242212;27;20714;-60
2024/04/15 12:07:46;;;;;;;8.00;2.47;;;30.00;42.90;;;;;;5244883;27;20303;-60
2024/04/15 12:10:15;;;;;;;8.07;2.77;;;30.00;43.00;;;;;;5242448;27;20753;-59
2024/04/15 12:12:42;;;;;;;6.77;2.20;;;30.00;43.70;;;;;;5242862;27;20300;-60
2024/04/15 12:15:11;;;;;;;9.03;2.27;;;30.10;42.90;;;;;;5185505;27;20258;-60
2024/04/15 12:17:39;;;;;;;3.77;2.33;;;30.00;42.10;;;;;;5185483;27;20351;-59
2024/04/15 12:20:07;;;;;;;6.47;2.67;;;29.90;42.30;;;;;;5213316;27;20260;-59
2024/04/15 12:22:35;;;;;;;7.87;2.00;;;29.90;42.80;;;;;;5242174;27;20248;-59
2024/04/15 12:25:03;;;;;;;8.37;2.30;;;30.00;43.30;;;;;;5244795;27;20264;-60
2024/04/15 12:27:36;;;;;;;6.47;2.30;;;30.00;44.30;;;;;;5243815;27;20256;-60
2024/04/15 12:30:09;;;;;;;7.00;2.03;;;30.20;44.50;;;;;;5241396;27;20662;-59
2024/04/15 12:32:41;;;;;;;7.80;2.70;;;30.30;44.80;;;;;;5241293;27;20321;-59
2024/04/15 12:35:10;;;;;;;8.40;2.40;;;30.30;43.80;;;;;;5242848;27;20256;-59
2024/04/15 12:37:38;;;;;;;4.57;1.87;;;30.40;42.90;;;;;;5223829;27;20295;-59
2024/04/15 12:40:07;;;;;;;6.00;2.53;;;30.40;42.00;;;;;;5242111;27;20291;-60
2024/04/15 12:42:35;;;;;;;8.47;2.10;;;30.40;43.10;;;;;;5205512;27;20252;-59
2024/04/15 12:45:03;;;;;;;6.43;2.07;;;30.50;43.70;;;;;;5201787;27;20295;-59
2024/04/15 12:47:31;;;;;;;6.67;1.90;;;30.60;44.20;;;;;;5184991;27;20264;-59
2024/04/15 12:49:59;;;;;;;5.00;1.93;;;30.70;43.90;;;;;;5240366;27;20355;-59
2024/04/15 12:52:28;;;;;;;8.20;2.07;;;30.70;43.20;;;;;;5236074;27;20266;-59